Time;durP1;ratioP1;P1;durP2;ratioP2;P2;SDS_P1;SDS_P2;PMS_P1;PMS_P2;Temp;Humidity;BMP_temperature;BMP_pressure;BME280_temperature;BME280_humidity;BME280_pressure;Samples;Min_cycle;Max_cycle;Signal;HPM_P1;HPM_P2
2023/06/13 00:01:56;;;;;;;16.92;5.82;;;;;;;21.63;39.58;101212.75;4985720;28;20042;-70
2023/06/13 00:04:23;;;;;;;15.48;5.57;;;;;;;21.49;39.99;101206.94;4987310;28;20030;-61
2023/06/13 00:06:55;;;;;;;18.80;5.80;;;;;;;21.34;40.48;101217.31;4984831;28;20027;-62
2023/06/13 00:09:22;;;;;;;16.73;5.88;;;;;;;21.30;41.71;101204.03;4987354;28;20030;-66
2023/06/13 00:11:51;;;;;;;17.33;5.80;;;;;;;21.17;40.70;101207.16;4984372;28;20062;-64
2023/06/13 00:14:17;;;;;;;16.23;5.70;;;;;;;21.10;41.61;101208.28;4987787;28;20500;-65
2023/06/13 00:16:43;;;;;;;16.88;5.78;;;;;;;21.02;41.32;101207.66;4980431;28;20086;-66
2023/06/13 00:19:11;;;;;;;18.38;5.70;;;;;;;20.88;41.83;101214.38;4987295;28;20054;-60
2023/06/13 00:21:38;;;;;;;19.42;5.97;;;;;;;20.72;41.95;101207.72;4984403;28;20548;-61
2023/06/13 00:24:04;;;;;;;18.05;5.68;;;;;;;20.70;42.67;101204.22;4986330;28;20117;-62
2023/06/13 00:26:29;;;;;;;16.42;5.70;;;;;;;20.50;42.27;101205.72;4986060;28;20545;-63
2023/06/13 00:28:54;;;;;;;18.10;6.00;;;;;;;20.45;42.67;101206.78;4985142;28;20050;-62
2023/06/13 00:31:20;;;;;;;17.63;5.80;;;;;;;20.37;42.64;101196.25;4987112;28;20066;-64
2023/06/13 00:33:45;;;;;;;17.23;5.80;;;;;;;20.32;42.39;101203.59;4984129;28;20055;-63
2023/06/13 00:36:15;;;;;;;17.17;5.72;;;;;;;20.19;42.31;101201.25;4987251;28;20492;-66
2023/06/13 00:38:41;;;;;;;17.60;6.18;;;;;;;20.13;42.68;101198.78;4984110;28;20027;-65
2023/06/13 00:41:07;;;;;;;17.85;5.90;;;;;;;20.13;42.83;101196.09;4986365;28;20046;-65
2023/06/13 00:43:32;;;;;;;16.45;5.57;;;;;;;20.06;43.16;101199.88;4985276;28;20038;-63
2023/06/13 00:46:00;;;;;;;17.90;6.10;;;;;;;20.03;42.93;101202.66;4985114;28;20359;-81
2023/06/13 00:48:26;;;;;;;17.23;5.97;;;;;;;19.92;43.67;101199.41;4986306;28;20446;-78
2023/06/13 00:50:52;;;;;;;16.88;5.65;;;;;;;19.85;43.10;101204.09;4984334;28;20069;-61
2023/06/13 00:53:19;;;;;;;16.63;5.90;;;;;;;19.79;43.17;101205.13;4987494;28;20465;-64
2023/06/13 00:55:46;;;;;;;18.60;6.40;;;;;;;19.71;43.14;101206.25;4979940;28;20039;-65
2023/06/13 00:58:12;;;;;;;18.30;5.97;;;;;;;19.66;43.78;101206.38;4986752;28;20027;-61
2023/06/13 01:00:39;;;;;;;18.08;5.90;;;;;;;19.58;44.21;101206.56;4984219;28;20121;-76
2023/06/13 01:03:10;;;;;;;17.60;6.10;;;;;;;19.48;45.27;101200.59;4985676;28;20026;-79
2023/06/13 01:05:37;;;;;;;16.83;6.10;;;;;;;19.40;44.78;101207.09;4984588;28;20105;-80
2023/06/13 01:08:08;;;;;;;18.98;6.18;;;;;;;19.35;45.26;101193.78;4984143;28;20457;-73
2023/06/13 01:10:34;;;;;;;17.67;6.40;;;;;;;19.22;45.65;101192.34;4984570;28;20057;-61
2023/06/13 01:13:00;;;;;;;18.00;6.32;;;;;;;19.14;46.37;101189.88;4985124;28;20065;-80
2023/06/13 01:15:32;;;;;;;16.80;6.10;;;;;;;19.07;46.59;101199.00;4985791;28;20026;-63
2023/06/13 01:18:00;;;;;;;20.10;6.38;;;;;;;18.98;46.14;101200.97;4984590;28;20122;-68
2023/06/13 01:20:28;;;;;;;19.80;6.72;;;;;;;18.95;45.97;101197.50;4985282;28;20401;-74
2023/06/13 01:23:14;;;;;;;18.35;6.47;;;;;;;18.96;45.39;101197.47;4984068;28;20042;-80
2023/06/13 01:26:03;;;;;;;19.73;6.60;;;;;;;18.87;46.61;101188.78;4982721;28;20057;-78
2023/06/13 01:28:33;;;;;;;19.13;6.80;;;;;;;18.87;46.65;101197.69;4982745;28;20478;-81
2023/06/13 01:31:01;;;;;;;19.35;6.47;;;;;;;18.75;47.18;101195.28;4984868;28;20084;-80
2023/06/13 01:33:27;;;;;;;18.67;6.65;;;;;;;18.61;47.00;101196.50;4983244;28;20035;-66
2023/06/13 01:35:53;;;;;;;18.52;6.80;;;;;;;18.66;46.87;101196.38;4986047;28;20034;-66
2023/06/13 01:38:19;;;;;;;20.27;6.80;;;;;;;18.61;47.20;101195.59;4982868;28;20038;-66
2023/06/13 01:40:44;;;;;;;19.50;7.18;;;;;;;18.58;47.22;101198.34;4986122;28;20030;-64
2023/06/13 01:43:10;;;;;;;18.15;7.00;;;;;;;18.50;47.47;101197.66;4983492;28;20030;-62
2023/06/13 01:45:35;;;;;;;19.23;7.35;;;;;;;18.42;47.55;101190.69;4985022;28;20038;-65
2023/06/13 01:48:14;;;;;;;20.55;7.15;;;;;;;18.40;47.70;101195.19;4984336;28;20026;-68
2023/06/13 01:50:50;;;;;;;19.02;7.10;;;;;;;18.30;47.93;101196.31;4985296;28;20473;-66
2023/06/13 01:53:29;;;;;;;19.00;7.38;;;;;;;18.21;48.61;101184.00;4979075;28;20505;-64
2023/06/13 01:56:06;;;;;;;19.35;7.10;;;;;;;18.10;49.07;101192.28;4980985;28;20027;-66
2023/06/13 01:58:39;;;;;;;22.30;7.30;;;;;;;18.07;48.72;101183.41;4984220;28;20027;-62
2023/06/13 02:01:06;;;;;;;18.65;6.97;;;;;;;18.01;49.46;101183.56;4984320;28;20381;-66
2023/06/13 02:03:33;;;;;;;19.38;7.10;;;;;;;18.05;49.41;101186.13;4983923;28;20030;-66
2023/06/13 02:05:58;;;;;;;20.20;7.22;;;;;;;17.89;50.58;101176.66;4983938;28;20058;-66
2023/06/13 02:08:24;;;;;;;20.60;7.20;;;;;;;17.76;51.07;101179.56;4983756;28;20064;-66
2023/06/13 02:10:49;;;;;;;19.58;7.38;;;;;;;17.82;50.88;101177.69;4982353;28;20115;-61
2023/06/13 02:13:14;;;;;;;20.08;7.25;;;;;;;17.78;50.95;101179.56;4985667;28;20030;-64
2023/06/13 02:15:40;;;;;;;18.23;7.07;;;;;;;17.73;51.00;101186.78;4982602;28;20030;-62
2023/06/13 02:18:06;;;;;;;19.70;7.28;;;;;;;17.74;51.23;101184.06;4984569;28;20092;-63
2023/06/13 02:20:32;;;;;;;21.38;7.85;;;;;;;17.66;50.99;101183.31;4983743;28;20046;-81
2023/06/13 02:22:57;;;;;;;19.50;7.47;;;;;;;17.65;50.94;101186.94;4983818;28;20117;-78
2023/06/13 02:25:23;;;;;;;19.70;7.30;;;;;;;17.58;51.49;101185.28;4985594;28;20034;-74
2023/06/13 02:27:48;;;;;;;19.45;7.10;;;;;;;17.49;52.48;101186.34;4982564;28;20034;-73
2023/06/13 02:30:14;;;;;;;19.05;7.40;;;;;;;17.45;53.13;101178.44;4984141;28;20061;-81
2023/06/13 02:32:42;;;;;;;18.02;7.13;;;;;;;17.39;52.97;101182.97;4982727;28;20042;-81
2023/06/13 02:35:08;;;;;;;19.35;7.28;;;;;;;17.35;53.43;101183.91;4984443;28;20074;-77
2023/06/13 02:37:33;;;;;;;19.90;7.70;;;;;;;17.37;53.72;101184.78;4983356;28;20039;-78
2023/06/13 02:39:59;;;;;;;19.90;7.63;;;;;;;17.32;53.92;101189.31;4983700;28;20035;-63
2023/06/13 02:42:26;;;;;;;20.52;7.63;;;;;;;17.28;52.98;101184.94;4984719;28;20481;-81
2023/06/13 02:44:52;;;;;;;19.95;7.57;;;;;;;17.25;54.03;101193.00;4984064;28;20031;-69
2023/06/13 02:47:19;;;;;;;18.98;7.18;;;;;;;17.17;54.44;101186.91;4991906;28;20057;-60
2023/06/13 02:49:44;;;;;;;20.00;7.70;;;;;;;17.14;53.80;101186.97;4984386;28;20041;-77
2023/06/13 02:52:10;;;;;;;19.63;7.78;;;;;;;17.06;54.29;101187.97;4991075;28;20026;-79
2023/06/13 02:54:35;;;;;;;21.02;7.60;;;;;;;17.05;54.17;101196.94;4989807;28;20465;-80
2023/06/13 02:57:00;;;;;;;21.95;8.07;;;;;;;17.02;54.29;101194.31;4989669;28;20037;-61
2023/06/13 02:59:27;;;;;;;20.48;7.93;;;;;;;17.02;53.93;101188.97;4990703;28;20030;-69
2023/06/13 03:01:52;;;;;;;20.05;7.70;;;;;;;16.89;56.02;101190.06;4988601;28;20121;-81
2023/06/13 03:04:18;;;;;;;20.02;7.43;;;;;;;16.92;55.55;101192.69;4991485;28;20125;-79
2023/06/13 03:06:44;;;;;;;23.30;8.10;;;;;;;16.88;54.84;101185.66;4988308;28;20023;-65
2023/06/13 03:09:11;;;;;;;20.98;7.50;;;;;;;16.82;56.47;101186.59;4989897;28;20441;-69
2023/06/13 03:11:36;;;;;;;19.70;8.02;;;;;;;16.75;56.72;101192.94;4989283;28;20022;-81
2023/06/13 03:14:02;;;;;;;20.63;8.10;;;;;;;16.75;56.31;101184.91;4989862;28;20035;-78
2023/06/13 03:16:28;;;;;;;19.83;8.07;;;;;;;16.65;56.49;101192.19;4990487;28;20019;-78
2023/06/13 03:18:53;;;;;;;20.63;7.70;;;;;;;16.68;56.15;101178.78;4988835;28;20031;-80
2023/06/13 03:21:20;;;;;;;21.15;8.02;;;;;;;16.72;56.83;101188.50;4991636;28;20132;-80
2023/06/13 03:23:46;;;;;;;21.73;7.93;;;;;;;16.65;56.95;101192.19;4985399;28;20032;-79
2023/06/13 03:26:11;;;;;;;24.23;8.25;;;;;;;16.70;56.38;101182.34;4991532;28;20049;-80
2023/06/13 03:28:37;;;;;;;21.70;7.95;;;;;;;16.70;57.57;101185.00;4990088;28;20026;-81
2023/06/13 03:31:02;;;;;;;22.65;8.00;;;;;;;16.67;57.86;101182.38;4990032;28;20038;-80
2023/06/13 03:33:27;;;;;;;20.90;8.35;;;;;;;16.63;57.56;101187.75;4990545;28;20065;-79
2023/06/13 03:35:53;;;;;;;19.85;8.15;;;;;;;16.57;59.19;101178.06;4988693;28;20037;-79
2023/06/13 03:38:19;;;;;;;21.70;8.73;;;;;;;16.60;57.47;101187.81;4991905;28;20027;-78
2023/06/13 03:40:45;;;;;;;28.83;9.60;;;;;;;16.54;57.44;101184.34;4992207;28;20548;-79
2023/06/13 03:43:10;;;;;;;22.92;8.77;;;;;;;16.53;58.64;101182.59;4988100;28;20039;-80
2023/06/13 03:45:36;;;;;;;24.00;8.60;;;;;;;16.53;58.99;101184.38;4990943;28;20031;-80
2023/06/13 03:48:01;;;;;;;21.67;8.45;;;;;;;16.54;59.45;101180.78;4990188;28;20033;-80
2023/06/13 03:50:27;;;;;;;25.08;8.98;;;;;;;16.51;59.38;101186.16;4988896;28;20035;-80
2023/06/13 03:52:52;;;;;;;21.92;8.85;;;;;;;16.52;58.34;101185.28;4992759;28;20041;-80
2023/06/13 03:55:18;;;;;;;20.70;8.35;;;;;;;16.48;59.65;101184.41;4988161;28;20058;-81
2023/06/13 03:57:44;;;;;;;21.73;8.60;;;;;;;16.42;60.02;101181.84;4987757;28;20049;-75
2023/06/13 04:00:10;;;;;;;21.33;9.00;;;;;;;16.45;59.14;101187.13;4985323;28;20513;-77
2023/06/13 04:02:36;;;;;;;21.95;8.77;;;;;;;16.51;59.80;101187.06;4986551;28;20062;-79
2023/06/13 04:05:02;;;;;;;21.35;9.00;;;;;;;16.50;59.78;101190.63;4986339;28;20114;-82
2023/06/13 04:07:33;;;;;;;22.52;9.50;;;;;;;16.51;59.75;101186.16;4985547;28;20048;-81
2023/06/13 04:10:03;;;;;;;25.35;9.05;;;;;;;16.51;60.64;101188.84;4986720;28;20037;-81
2023/06/13 04:12:30;;;;;;;23.83;8.70;;;;;;;16.53;60.55;101192.38;4985751;28;20054;-74
2023/06/13 04:14:55;;;;;;;22.08;9.05;;;;;;;16.58;60.55;101190.50;4986918;28;20030;-77
2023/06/13 04:17:21;;;;;;;21.48;8.95;;;;;;;16.64;59.93;101193.06;4984398;28;20042;-78
2023/06/13 04:19:48;;;;;;;21.52;9.57;;;;;;;16.65;60.45;101186.84;4987516;28;20031;-68
2023/06/13 04:22:16;;;;;;;21.17;9.82;;;;;;;16.70;60.71;101186.75;4984436;28;20089;-74
2023/06/13 04:24:42;;;;;;;21.85;9.77;;;;;;;16.70;60.28;101193.00;4986992;28;20113;-66
2023/06/13 04:27:08;;;;;;;21.88;9.60;;;;;;;16.73;60.54;101192.06;4985393;28;20041;-82
2023/06/13 04:29:34;;;;;;;22.17;9.85;;;;;;;16.72;60.75;101192.97;4985898;28;20031;-81
2023/06/13 04:32:03;;;;;;;23.17;9.70;;;;;;;16.76;61.94;101193.81;4986178;28;20030;-73
2023/06/13 04:34:29;;;;;;;21.08;10.48;;;;;;;16.79;60.84;101202.66;4985217;28;20042;-73
2023/06/13 04:36:57;;;;;;;21.65;10.20;;;;;;;16.80;61.07;101200.84;4986820;28;20054;-76
2023/06/13 04:39:26;;;;;;;21.30;10.55;;;;;;;16.83;61.60;101200.81;4984535;28;20034;-82
2023/06/13 04:41:55;;;;;;;22.70;10.70;;;;;;;16.79;62.11;101204.44;4987383;28;20447;-61
2023/06/13 04:44:25;;;;;;;21.92;10.55;;;;;;;16.81;62.26;101210.63;4983967;28;20068;-78
2023/06/13 04:46:50;;;;;;;22.55;11.15;;;;;;;16.88;62.79;101209.66;4987097;28;20531;-77
2023/06/13 04:49:16;;;;;;;21.60;10.07;;;;;;;16.98;61.64;101208.63;4980205;28;20066;-82
2023/06/13 04:51:42;;;;;;;22.08;10.80;;;;;;;17.02;61.12;101210.34;4986563;28;20465;-81
2023/06/13 04:54:09;;;;;;;24.10;10.80;;;;;;;17.09;62.08;101213.75;4984760;28;20105;-70
2023/06/13 04:56:35;;;;;;;23.48;10.85;;;;;;;17.13;62.03;101214.63;4985699;28;20105;-71
2023/06/13 04:59:00;;;;;;;22.48;10.40;;;;;;;17.20;61.29;101216.28;4985678;28;20109;-64
2023/06/13 05:01:26;;;;;;;24.33;10.50;;;;;;;17.27;61.10;101215.25;4984129;28;20035;-81
2023/06/13 05:03:53;;;;;;;24.23;10.52;;;;;;;17.36;60.16;101223.09;4986813;28;20045;-61
2023/06/13 05:06:19;;;;;;;24.15;10.02;;;;;;;17.41;60.66;101218.53;4983448;28;20043;-60
2023/06/13 05:08:44;;;;;;;22.83;10.00;;;;;;;17.49;60.24;101212.16;4986539;28;20037;-81
2023/06/13 05:11:10;;;;;;;20.98;9.55;;;;;;;17.59;60.12;101219.09;4984314;28;20057;-78
2023/06/13 05:13:35;;;;;;;20.52;10.05;;;;;;;17.65;59.44;101221.69;4985335;28;20109;-81
2023/06/13 05:16:00;;;;;;;22.02;10.10;;;;;;;17.73;59.29;101221.53;4985342;28;20031;-81
2023/06/13 05:18:29;;;;;;;21.17;9.93;;;;;;;17.81;58.81;101222.28;4983976;28;20035;-61
2023/06/13 05:20:58;;;;;;;23.35;9.73;;;;;;;17.86;59.82;101219.50;4985633;28;20054;-78
2023/06/13 05:23:24;;;;;;;20.77;9.88;;;;;;;17.92;59.03;101222.94;4983398;28;20173;-81
2023/06/13 05:25:49;;;;;;;21.55;9.52;;;;;;;17.98;58.51;101221.94;4986834;28;20038;-78
2023/06/13 05:28:16;;;;;;;21.98;9.55;;;;;;;18.09;59.02;101227.09;4983125;28;20029;-70
2023/06/13 05:30:42;;;;;;;21.75;9.23;;;;;;;18.15;57.60;101223.41;4985635;28;20034;-75
2023/06/13 05:33:08;;;;;;;21.27;9.27;;;;;;;18.22;56.96;101227.72;4980707;28;20062;-67
2023/06/13 05:35:33;;;;;;;22.27;9.38;;;;;;;18.25;56.85;101224.97;4973802;28;20125;-80
2023/06/13 05:37:58;;;;;;;21.27;9.85;;;;;;;18.28;56.36;101227.56;4975690;28;20033;-75
2023/06/13 05:40:24;;;;;;;21.58;9.25;;;;;;;18.31;56.25;101223.97;4977800;28;20489;-76
2023/06/13 05:42:49;;;;;;;21.10;9.55;;;;;;;18.38;55.99;101223.78;4976646;28;20504;-75
2023/06/13 05:45:15;;;;;;;22.35;9.32;;;;;;;18.50;55.89;101219.94;4975408;28;20513;-63
2023/06/13 05:47:40;;;;;;;21.70;10.07;;;;;;;18.57;55.70;101221.56;4974692;28;20076;-69
2023/06/13 05:50:05;;;;;;;21.17;9.50;;;;;;;18.63;55.56;101231.25;4978094;28;20034;-70
2023/06/13 05:52:31;;;;;;;20.58;9.45;;;;;;;18.65;55.34;101237.44;4977728;28;20039;-60
2023/06/13 05:54:57;;;;;;;21.33;9.15;;;;;;;18.69;54.63;101232.91;4977754;28;20029;-60
2023/06/13 05:57:24;;;;;;;23.70;9.23;;;;;;;18.73;53.86;101232.81;4976890;28;20114;-60
2023/06/13 05:59:50;;;;;;;26.55;9.52;;;;;;;18.77;55.00;101228.25;4974973;28;20389;-64
2023/06/13 06:02:15;;;;;;;34.13;10.52;;;;;;;18.82;55.14;101231.72;4978413;28;20038;-82
2023/06/13 06:04:40;;;;;;;22.67;9.13;;;;;;;18.84;54.25;101234.34;4975563;28;20054;-60
2023/06/13 06:07:06;;;;;;;22.67;9.55;;;;;;;18.87;54.59;101242.34;4976850;28;20058;-66
2023/06/13 06:09:31;;;;;;;22.08;9.00;;;;;;;18.87;54.95;101245.88;4975807;28;20497;-81
2023/06/13 06:11:57;;;;;;;22.17;9.02;;;;;;;18.93;53.80;101244.84;4977366;28;20062;-73
2023/06/13 06:14:23;;;;;;;21.88;9.10;;;;;;;18.97;54.24;101249.22;4977497;28;20045;-69
2023/06/13 06:16:50;;;;;;;23.35;9.45;;;;;;;19.04;54.47;101248.16;4976928;28;20023;-81
2023/06/13 06:19:15;;;;;;;23.50;9.20;;;;;;;19.12;54.36;101248.88;4976646;28;20035;-69
2023/06/13 06:21:41;;;;;;;21.95;8.88;;;;;;;19.15;54.09;101245.22;4975880;28;20493;-74
2023/06/13 06:24:07;;;;;;;22.38;9.00;;;;;;;19.19;54.13;101246.88;4976971;28;20121;-73
2023/06/13 06:26:32;;;;;;;23.00;9.57;;;;;;;19.24;53.35;101244.13;4979102;28;20033;-79
2023/06/13 06:28:58;;;;;;;21.35;9.10;;;;;;;19.32;53.96;101243.00;4981426;28;20031;-81
2023/06/13 06:31:24;;;;;;;21.15;9.23;;;;;;;19.37;53.00;101245.56;4975644;28;20077;-84
2023/06/13 06:33:49;;;;;;;20.60;9.45;;;;;;;19.40;52.78;101245.47;4976670;28;20027;-85
2023/06/13 06:36:15;;;;;;;21.13;8.90;;;;;;;19.43;52.54;101245.41;4972363;28;20030;-86
2023/06/13 06:38:42;;;;;;;21.85;9.02;;;;;;;19.51;53.25;101243.41;4979571;28;20566;-78
2023/06/13 06:41:08;;;;;;;22.23;8.98;;;;;;;19.58;53.07;101248.59;4980103;28;20070;-72
2023/06/13 06:43:33;;;;;;;21.52;9.20;;;;;;;19.59;52.36;101240.50;4976744;28;20030;-81
2023/06/13 06:45:58;;;;;;;22.25;9.30;;;;;;;19.65;52.33;101232.28;4975345;28;20022;-79
2023/06/13 06:48:24;;;;;;;21.58;9.10;;;;;;;19.72;52.24;101238.38;4978828;28;20100;-80
2023/06/13 06:50:49;;;;;;;21.10;8.60;;;;;;;19.82;52.80;101233.69;4980634;28;20079;-60
2023/06/13 06:53:14;;;;;;;20.92;9.05;;;;;;;19.87;51.74;101234.41;4976432;28;20027;-75
2023/06/13 06:55:40;;;;;;;21.67;8.82;;;;;;;19.90;52.04;101237.00;4977679;28;20531;-75
2023/06/13 06:58:05;;;;;;;21.52;9.32;;;;;;;19.94;51.74;101229.75;4977986;28;20556;-71
2023/06/13 07:00:30;;;;;;;21.23;9.00;;;;;;;20.00;51.89;101235.81;4974125;28;20034;-77
2023/06/13 07:02:56;;;;;;;21.92;9.10;;;;;;;20.09;51.71;101231.97;4978924;28;20477;-78
2023/06/13 07:05:22;;;;;;;22.70;9.25;;;;;;;20.14;51.64;101242.56;4977984;28;20389;-62
2023/06/13 07:07:47;;;;;;;21.05;8.70;;;;;;;20.19;51.32;101232.59;4971838;28;20059;-78
2023/06/13 07:10:13;;;;;;;20.25;9.20;;;;;;;20.27;51.09;101229.69;4977362;28;20098;-78
2023/06/13 07:12:39;;;;;;;19.77;8.63;;;;;;;20.32;51.18;101235.81;4976429;28;20046;-76
2023/06/13 07:15:05;;;;;;;20.83;8.93;;;;;;;20.42;51.27;101239.09;4982242;28;20077;-70
2023/06/13 07:17:30;;;;;;;21.40;8.95;;;;;;;20.52;51.02;101246.81;4976836;28;20573;-69
2023/06/13 07:19:56;;;;;;;20.67;8.52;;;;;;;20.64;50.89;101242.84;4976285;28;20038;-78
2023/06/13 07:22:21;;;;;;;21.02;8.90;;;;;;;20.73;49.92;101249.78;4978684;28;20465;-78
2023/06/13 07:24:48;;;;;;;22.02;8.90;;;;;;;20.76;49.55;101249.69;4977522;28;20109;-77
2023/06/13 07:27:15;;;;;;;22.42;8.60;;;;;;;20.82;49.42;101257.53;4985011;28;20026;-78
2023/06/13 07:29:41;;;;;;;20.48;8.20;;;;;;;20.95;49.85;101249.97;4981563;28;20035;-65
2023/06/13 07:32:07;;;;;;;21.45;8.40;;;;;;;21.02;49.21;101242.59;4985077;28;20375;-63
2023/06/13 07:34:32;;;;;;;21.17;8.32;;;;;;;21.09;48.89;101241.47;4986275;28;20034;-63
2023/06/13 07:36:58;;;;;;;19.48;8.15;;;;;;;21.20;49.04;101243.78;4986718;28;20027;-61
2023/06/13 07:39:24;;;;;;;22.73;8.30;;;;;;;21.32;49.26;101245.16;4986243;28;20070;-70
2023/06/13 07:41:50;;;;;;;21.25;8.13;;;;;;;21.46;49.28;101239.31;4985193;28;20049;-66
2023/06/13 07:44:15;;;;;;;21.77;8.43;;;;;;;21.50;47.96;101239.16;4988527;28;20027;-60
2023/06/13 07:46:41;;;;;;;21.33;7.93;;;;;;;21.55;48.17;101244.41;4984755;28;20022;-70
2023/06/13 07:49:07;;;;;;;20.15;8.20;;;;;;;21.62;47.94;101242.38;4987626;28;20077;-68
2023/06/13 07:51:33;;;;;;;20.13;7.88;;;;;;;21.76;48.32;101242.78;4986215;28;20038;-68
2023/06/13 07:53:59;;;;;;;21.05;8.88;;;;;;;21.83;47.31;101241.63;4986228;28;20030;-69
2023/06/13 07:56:24;;;;;;;20.92;8.90;;;;;;;21.89;47.37;101236.00;4987091;28;20031;-69
2023/06/13 07:58:50;;;;;;;22.27;8.55;;;;;;;21.96;47.07;101241.16;4985504;28;20030;-61
2023/06/13 08:01:15;;;;;;;20.48;8.38;;;;;;;22.07;47.23;101238.94;4987916;28;20034;-70
2023/06/13 08:03:41;;;;;;;21.10;8.20;;;;;;;22.17;47.53;101242.19;4984995;28;20122;-61
2023/06/13 08:06:07;;;;;;;20.58;8.38;;;;;;;22.28;46.78;101243.53;4987426;28;20396;-61
2023/06/13 08:08:32;;;;;;;20.27;7.85;;;;;;;22.41;46.13;101245.75;4985655;28;20041;-65
2023/06/13 08:10:57;;;;;;;20.55;7.80;;;;;;;22.53;46.80;101245.28;4986126;28;20171;-62
2023/06/13 08:13:23;;;;;;;21.10;7.90;;;;;;;22.60;46.42;101240.53;4985620;28;20029;-67
2023/06/13 08:15:48;;;;;;;19.60;8.00;;;;;;;22.73;46.60;101243.59;4984711;28;20023;-67
2023/06/13 08:18:14;;;;;;;18.48;7.38;;;;;;;22.86;45.30;101244.84;4988173;28;20028;-71
2023/06/13 08:20:40;;;;;;;19.20;7.20;;;;;;;23.01;45.50;101245.16;4984551;28;20113;-76
2023/06/13 08:23:06;;;;;;;19.85;7.75;;;;;;;23.15;45.77;101242.81;4986783;28;20477;-78
2023/06/13 08:25:31;;;;;;;19.80;7.22;;;;;;;23.28;45.55;101244.03;4984437;28;20125;-69
2023/06/13 08:27:57;;;;;;;19.75;7.78;;;;;;;23.42;45.07;101242.59;4985747;28;20027;-76
2023/06/13 08:30:22;;;;;;;21.23;7.63;;;;;;;23.51;44.37;101242.19;4987005;28;20049;-75
2023/06/13 08:32:52;;;;;;;18.98;7.38;;;;;;;23.58;43.72;101238.28;4984243;28;20481;-66
2023/06/13 08:35:18;;;;;;;18.92;7.35;;;;;;;23.66;44.55;101241.53;4987416;28;20034;-75
2023/06/13 08:37:43;;;;;;;19.30;7.35;;;;;;;23.76;43.13;101235.72;4984238;28;20512;-78
2023/06/13 08:40:10;;;;;;;21.02;7.60;;;;;;;23.70;42.93;101230.59;4986861;28;20034;-78
2023/06/13 08:42:39;;;;;;;19.45;7.60;;;;;;;23.82;44.12;101232.72;4984371;28;20034;-78
2023/06/13 08:45:07;;;;;;;21.52;7.75;;;;;;;23.97;42.92;101228.47;4985287;28;20098;-78
2023/06/13 08:47:33;;;;;;;20.80;8.00;;;;;;;24.03;42.27;101217.41;4985283;28;20032;-77
2023/06/13 08:50:00;;;;;;;20.55;7.80;;;;;;;23.98;41.74;101220.34;4985258;28;20023;-78
2023/06/13 08:52:36;;;;;;;19.42;7.88;;;;;;;24.02;42.26;101224.63;4986021;28;20038;-78
2023/06/13 08:55:03;;;;;;;19.98;7.43;;;;;;;24.38;42.51;101223.00;4981915;28;20358;-75
2023/06/13 08:57:31;;;;;;;19.00;7.22;;;;;;;24.59;40.72;101220.19;4986038;28;20034;-78
2023/06/13 08:59:57;;;;;;;20.13;7.20;;;;;;;24.77;41.35;101215.75;4983238;28;20033;-74
2023/06/13 09:02:24;;;;;;;19.52;6.97;;;;;;;24.92;39.68;101214.13;4984527;28;20092;-71
2023/06/13 09:04:51;;;;;;;22.02;7.25;;;;;;;25.02;40.79;101210.88;4985425;28;20030;-68
2023/06/13 09:07:16;;;;;;;21.60;7.35;;;;;;;25.01;39.94;101214.50;4983949;28;20034;-64
2023/06/13 09:09:43;;;;;;;20.10;7.13;;;;;;;25.17;38.65;101205.63;4986419;28;20519;-67
2023/06/13 09:12:12;;;;;;;20.17;7.50;;;;;;;25.17;38.94;101211.03;4983797;28;20027;-70
2023/06/13 09:14:39;;;;;;;21.50;6.90;;;;;;;25.34;39.21;101207.50;4986566;28;20026;-67
2023/06/13 09:17:04;;;;;;;19.67;6.93;;;;;;;25.48;38.44;101210.34;4983911;28;20027;-67
2023/06/13 09:19:30;;;;;;;18.00;6.50;;;;;;;25.66;39.01;101208.50;4985834;28;20042;-65
2023/06/13 09:21:56;;;;;;;18.45;7.03;;;;;;;25.55;37.60;101219.88;4984447;28;20058;-65
2023/06/13 09:24:24;;;;;;;18.83;6.90;;;;;;;25.73;38.17;101209.94;4984124;28;20426;-64
2023/06/13 09:26:50;;;;;;;18.98;6.55;;;;;;;25.88;37.37;101212.78;4985859;28;20037;-65
2023/06/13 09:29:16;;;;;;;19.73;6.80;;;;;;;26.08;37.43;101206.28;4983450;28;20102;-68
2023/06/13 09:31:41;;;;;;;21.15;7.32;;;;;;;26.11;36.61;101208.84;4986297;28;20044;-68
2023/06/13 09:34:07;;;;;;;20.08;7.00;;;;;;;26.12;36.70;101212.41;4983083;28;20039;-63
2023/06/13 09:36:35;;;;;;;19.58;6.53;;;;;;;26.36;36.36;101208.34;4985561;28;20026;-60
2023/06/13 09:39:03;;;;;;;19.80;6.65;;;;;;;26.57;35.46;101205.38;4984193;28;20065;-66
2023/06/13 09:41:31;;;;;;;20.23;6.60;;;;;;;26.73;35.04;101206.25;4985419;28;20027;-70
2023/06/13 09:43:57;;;;;;;23.45;7.05;;;;;;;26.96;36.29;101212.19;4984170;28;20026;-68
2023/06/13 09:46:26;;;;;;;20.30;6.70;;;;;;;26.97;35.41;101208.50;4984145;28;20053;-67
2023/06/13 09:48:52;;;;;;;18.40;6.53;;;;;;;27.10;35.30;101209.53;4984994;28;20035;-69
2023/06/13 09:51:17;;;;;;;21.13;6.90;;;;;;;27.19;34.92;101208.09;4983275;28;20084;-74
2023/06/13 09:53:47;;;;;;;18.67;6.32;;;;;;;27.39;34.19;101220.50;4986055;28;20121;-70
2023/06/13 09:56:12;;;;;;;18.63;6.25;;;;;;;27.75;33.55;101204.75;4982553;28;20031;-68
2023/06/13 09:58:38;;;;;;;18.25;6.13;;;;;;;27.75;33.42;101202.88;4986109;28;20105;-75
2023/06/13 10:01:04;;;;;;;19.90;6.60;;;;;;;27.60;33.00;101201.16;4982857;28;20066;-77
2023/06/13 10:03:30;;;;;;;19.27;6.28;;;;;;;27.87;33.17;101198.53;4984898;28;20031;-66
2023/06/13 10:06:00;;;;;;;19.42;6.53;;;;;;;28.48;31.87;101196.47;4983957;28;20058;-75
2023/06/13 10:08:26;;;;;;;17.33;6.20;;;;;;;29.69;29.86;101196.50;4983967;28;20073;-77
2023/06/13 10:10:57;;;;;;;19.30;6.30;;;;;;;31.20;27.76;101200.94;4984682;28;20034;-73
2023/06/13 10:13:25;;;;;;;18.83;6.38;;;;;;;32.83;26.38;101193.28;4982416;28;20508;-77
2023/06/13 10:15:59;;;;;;;17.48;5.95;;;;;;;33.81;24.65;101206.88;4984782;28;20054;-77
2023/06/13 10:18:39;;;;;;;16.20;6.28;;;;;;;35.00;23.57;101204.34;4983961;28;20023;-77
2023/06/13 10:21:06;;;;;;;16.70;5.95;;;;;;;35.29;22.44;101207.13;4982503;28;20043;-77
2023/06/13 10:23:36;;;;;;;17.50;6.00;;;;;;;35.21;22.50;101202.34;4984926;28;20049;-77
2023/06/13 10:26:09;;;;;;;18.17;5.90;;;;;;;34.58;21.91;101202.69;4982980;28;20033;-76
2023/06/13 10:29:21;;;;;;;18.75;5.88;;;;;;;35.60;22.49;101206.91;4985073;28;20037;-77
2023/06/13 10:31:56;;;;;;;16.80;5.25;;;;;;;35.66;21.00;101206.31;4979459;28;20051;-71
2023/06/13 10:34:27;;;;;;;16.13;5.70;;;;;;;35.34;21.88;101207.53;4984347;28;20029;-66
2023/06/13 10:37:11;;;;;;;18.00;5.70;;;;;;;35.59;20.96;101203.31;4983278;28;20038;-69
2023/06/13 10:40:12;;;;;;;18.08;5.60;;;;;;;35.68;21.24;101204.28;4982125;28;20118;-68
2023/06/13 10:42:44;;;;;;;19.33;5.72;;;;;;;35.37;20.96;101198.13;4926874;28;20040;-68
2023/06/13 10:45:24;;;;;;;15.65;5.57;;;;;;;35.89;20.10;101197.72;4985269;28;20531;-70
2023/06/13 10:47:50;;;;;;;15.93;5.53;;;;;;;35.99;19.94;101192.19;4980378;28;20034;-63
2023/06/13 10:50:16;;;;;;;15.40;5.30;;;;;;;36.18;19.40;101202.25;4984795;28;20027;-69
2023/06/13 10:52:49;;;;;;;16.67;5.57;;;;;;;36.27;19.38;101201.31;4981869;28;20474;-63
2023/06/13 10:55:25;;;;;;;17.25;5.50;;;;;;;35.97;19.96;101200.59;4978671;28;20019;-69
2023/06/13 10:57:53;;;;;;;16.60;5.28;;;;;;;37.22;18.54;101196.28;4984284;28;20030;-62
2023/06/13 11:00:35;;;;;;;15.80;5.20;;;;;;;37.83;18.46;101200.03;4983085;28;20026;-72
2023/06/13 11:03:04;;;;;;;16.95;5.30;;;;;;;37.45;18.13;101191.16;4982703;28;20124;-69
2023/06/13 11:05:33;;;;;;;16.60;5.78;;;;;;;36.19;18.88;101176.44;4983894;28;20030;-66
2023/06/13 11:07:58;;;;;;;17.60;5.47;;;;;;;35.30;19.64;101180.50;4987226;28;20403;-65
2023/06/13 11:10:24;;;;;;;15.32;5.20;;;;;;;36.15;19.63;101170.41;4987158;28;20038;-63
2023/06/13 11:12:53;;;;;;;15.40;5.13;;;;;;;36.93;18.82;101183.69;4987991;28;20042;-62
2023/06/13 11:15:27;;;;;;;15.00;5.32;;;;;;;36.82;18.97;101172.91;4986139;28;20023;-61
2023/06/13 11:18:05;;;;;;;16.17;5.40;;;;;;;37.33;18.97;101179.53;4987709;28;20026;-62